createdAt,value
2022-08-21T00:01:41.588Z,100924.69
2022-08-21T00:04:09.401Z,100934.72
2022-08-21T00:06:37.483Z,100934.72
2022-08-21T00:09:06.996Z,100937.47
2022-08-21T00:11:36.023Z,100936.66
2022-08-21T00:14:03.879Z,100938.53
2022-08-21T00:16:30.991Z,100935.19
2022-08-21T00:18:57.521Z,100930.81
2022-08-21T00:21:24.374Z,100924.53
2022-08-21T00:23:50.862Z,100922.41
2022-08-21T00:26:17.449Z,100915.31
2022-08-21T00:28:44.159Z,100915.91
2022-08-21T00:31:10.651Z,100917.38
2022-08-21T00:33:37.327Z,100926.16
2022-08-21T00:36:04.226Z,100929.72
2022-08-21T00:38:30.870Z,100933.28
2022-08-21T00:41:02.065Z,100933.53
2022-08-21T00:43:48.405Z,100933.94
2022-08-21T00:46:14.866Z,100934.94
2022-08-21T00:48:41.662Z,100929.47
2022-08-21T00:51:16.538Z,100936.22
2022-08-21T00:53:50.658Z,100920.72
2022-08-21T00:56:21.498Z,100917.94
2022-08-21T00:58:49.175Z,100931.50
2022-08-21T01:01:21.533Z,100927.50
2022-08-21T01:03:48.621Z,100924.78
2022-08-21T01:09:57.412Z,100922.28
2022-08-21T01:12:24.594Z,100923.13
2022-08-21T01:14:51.238Z,100932.53
2022-08-21T01:17:18.447Z,100925.00
2022-08-21T01:19:44.957Z,100923.97
2022-08-21T01:22:11.590Z,100922.28
2022-08-21T01:24:38.188Z,100932.16
2022-08-21T01:27:04.976Z,100925.06
2022-08-21T01:29:55.558Z,100925.91
2022-08-21T01:32:22.233Z,100923.22
2022-08-21T01:34:51.031Z,100925.34
2022-08-21T01:37:18.413Z,100924.06
2022-08-21T01:39:45.747Z,100925.53
2022-08-21T01:42:12.750Z,100928.25
2022-08-21T01:44:40.029Z,100934.34
2022-08-21T01:47:09.775Z,100937.44
2022-08-21T01:49:37.389Z,100938.25
2022-08-21T01:52:05.597Z,100939.75
2022-08-21T01:54:36.397Z,100940.16
2022-08-21T01:57:03.538Z,100939.94
2022-08-21T01:59:30.262Z,100944.31
2022-08-21T02:01:56.848Z,100941.81
2022-08-21T02:04:24.481Z,100939.28
2022-08-21T02:06:51.262Z,100938.88
2022-08-21T02:09:18.691Z,100942.47
2022-08-21T02:11:45.203Z,100946.28
2022-08-21T02:14:14.527Z,100943.56
2022-08-21T02:16:43.961Z,100939.13
2022-08-21T02:19:14.055Z,100927.19
2022-08-21T02:21:41.194Z,100937.47
2022-08-21T02:24:08.499Z,100932.69
2022-08-21T02:26:35.537Z,100933.28
2022-08-21T02:29:02.485Z,100936.22
2022-08-21T02:31:29.961Z,100932.03
2022-08-21T02:33:56.463Z,100934.34
2022-08-21T02:36:22.989Z,100941.88
2022-08-21T02:38:50.426Z,100927.47
2022-08-21T02:41:19.431Z,100938.34
2022-08-21T02:43:46.242Z,100938.75
2022-08-21T02:46:15.147Z,100939.78
2022-08-21T02:48:42.430Z,100929.53
2022-08-21T02:51:12.690Z,100929.75
2022-08-21T02:53:39.707Z,100936.63
2022-08-21T02:56:09.225Z,100934.97
2022-08-21T02:58:42.431Z,100940.41
2022-08-21T03:01:10.481Z,100934.75
2022-08-21T03:03:40.158Z,100945.84
2022-08-21T03:06:08.963Z,100937.28
2022-08-21T03:08:36.456Z,100937.72
2022-08-21T03:11:03.249Z,100938.97
2022-08-21T03:13:29.829Z,100933.91
2022-08-21T03:15:57.634Z,100933.09
2022-08-21T03:18:25.185Z,100926.19
2022-08-21T03:20:51.925Z,100925.56
2022-08-21T03:23:19.541Z,100932.47
2022-08-21T03:25:47.854Z,100931.81
2022-08-21T03:28:17.947Z,100934.34
2022-08-21T03:30:46.471Z,100935.78
2022-08-21T03:33:15.460Z,100941.03
2022-08-21T03:35:44.084Z,100936.00
2022-08-21T03:38:11.327Z,100937.47
2022-08-21T03:40:37.875Z,100934.34
2022-08-21T03:43:04.548Z,100938.72
2022-08-21T03:45:31.482Z,100929.72
2022-08-21T03:48:04.797Z,100934.53
2022-08-21T03:50:34.815Z,100938.28
2022-08-21T03:53:01.979Z,100929.72
2022-08-21T03:55:29.053Z,100937.84
2022-08-21T03:57:55.627Z,100935.97
2022-08-21T04:00:22.306Z,100940.16
2022-08-21T04:02:49.019Z,100936.19
2022-08-21T04:05:28.176Z,100945.56
2022-08-21T04:07:59.889Z,100950.63
2022-08-21T04:10:28.048Z,100943.72
2022-08-21T04:12:55.522Z,100946.41
2022-08-21T04:15:23.847Z,100949.38
2022-08-21T04:17:50.498Z,100956.47
2022-08-21T04:20:19.072Z,100947.91
2022-08-21T04:22:46.786Z,100960.63
2022-08-21T04:25:15.045Z,100954.38
2022-08-21T04:27:41.896Z,100950.78
2022-08-21T04:30:10.012Z,100946.81
2022-08-21T04:32:42.582Z,100947.44
2022-08-21T04:35:11.111Z,100941.81
2022-08-21T04:37:42.105Z,100945.78
2022-08-21T04:40:11.237Z,100952.88
2022-08-21T04:43:09.310Z,100949.25
2022-08-21T04:45:43.042Z,100951.31
2022-08-21T04:48:14.179Z,100954.28
2022-08-21T04:50:48.688Z,100959.78
2022-08-21T04:53:21.533Z,100957.66
2022-08-21T04:55:48.839Z,100961.47
2022-08-21T04:58:18.442Z,100958.53
2022-08-21T05:00:46.876Z,100964.19
2022-08-21T05:03:13.574Z,100958.53
2022-08-21T05:05:40.746Z,100961.69
2022-08-21T05:08:09.999Z,100958.16
2022-08-21T05:10:36.868Z,100958.97
2022-08-21T05:13:04.281Z,100968.19
2022-08-21T05:15:31.567Z,100967.97
2022-08-21T05:18:00.962Z,100967.09
2022-08-21T05:20:28.793Z,100958.16
2022-08-21T05:22:55.330Z,100969.44
2022-08-21T05:25:22.143Z,100971.09
2022-08-21T05:27:48.699Z,100968.13
2022-08-21T05:30:18.641Z,100971.28
2022-08-21T05:32:45.162Z,100971.06
2022-08-21T05:35:12.272Z,100973.78
2022-08-21T05:37:38.764Z,100978.56
2022-08-21T05:40:21.398Z,100981.91
2022-08-21T05:42:54.221Z,100985.22
2022-08-21T05:45:42.320Z,100986.84
2022-08-21T05:48:20.094Z,100986.19
2022-08-21T05:50:48.099Z,100986.81
2022-08-21T05:53:16.030Z,100991.41
2022-08-21T05:55:46.117Z,100989.97
2022-08-21T05:58:19.824Z,100995.31
2022-08-21T06:00:48.436Z,100988.91
2022-08-21T06:03:18.550Z,100995.00
2022-08-21T06:05:46.510Z,100996.41
2022-08-21T06:08:13.965Z,100997.88
2022-08-21T06:10:40.523Z,100996.50
2022-08-21T06:13:07.022Z,100992.50
2022-08-21T06:15:33.814Z,100989.25
2022-08-21T06:18:00.344Z,100985.91
2022-08-21T06:20:27.384Z,100994.25
2022-08-21T06:22:54.130Z,100988.41
2022-08-21T06:25:20.967Z,100995.97
2022-08-21T06:27:47.937Z,100999.06
2022-08-21T06:30:15.051Z,100995.72
2022-08-21T06:32:41.586Z,100994.09
2022-08-21T06:35:08.546Z,101000.13
2022-08-21T06:37:35.290Z,100990.34
2022-08-21T06:40:04.033Z,101000.81
2022-08-21T06:42:30.749Z,100998.31
2022-08-21T06:44:58.252Z,100997.53
2022-08-21T06:47:24.843Z,100999.19
2022-08-21T06:49:51.524Z,101001.69
2022-08-21T06:52:18.191Z,101000.44
2022-08-21T06:54:44.700Z,100991.88
2022-08-21T06:57:11.191Z,100993.75
2022-08-21T06:59:37.736Z,101000.84
2022-08-21T07:02:04.663Z,100986.41
2022-08-21T07:04:31.218Z,100985.34
2022-08-21T07:06:57.778Z,100993.91
2022-08-21T07:09:24.970Z,100991.78
2022-08-21T07:11:54.254Z,100997.03
2022-08-21T07:14:20.819Z,100991.97
2022-08-21T07:16:48.400Z,100984.84
2022-08-21T07:19:14.971Z,100990.91
2022-08-21T07:21:41.564Z,100985.16
2022-08-21T07:24:08.067Z,100983.19
2022-08-21T07:26:34.565Z,100988.25
2022-08-21T07:29:01.138Z,100977.09
2022-08-21T07:31:29.333Z,100981.56
2022-08-21T07:33:55.894Z,100986.16
2022-08-21T07:36:22.589Z,100981.69
2022-08-21T07:38:49.090Z,100984.25
2022-08-21T07:41:26.298Z,100977.13
2022-08-21T07:43:53.184Z,100983.81
2022-08-21T07:46:20.441Z,100982.50
2022-08-21T07:48:47.161Z,100991.97
2022-08-21T07:51:17.471Z,100986.25
2022-08-21T07:53:49.796Z,100981.00
2022-08-21T07:56:16.969Z,100983.38
2022-08-21T07:58:43.472Z,100984.09
2022-08-21T08:01:10.042Z,100992.50
2022-08-21T08:03:36.654Z,100985.06
2022-08-21T08:06:05.549Z,100980.22
2022-08-21T08:08:32.812Z,100980.69
2022-08-21T08:11:00.890Z,100977.97
2022-08-21T08:13:27.414Z,100983.16
2022-08-21T08:15:53.990Z,100980.41
2022-08-21T08:18:20.581Z,100980.22
2022-08-21T08:20:47.039Z,100986.25
2022-08-21T08:23:15.101Z,100982.63
2022-08-21T08:25:42.086Z,100982.31
2022-08-21T08:28:17.326Z,100986.34
2022-08-21T08:30:47.383Z,100988.34
2022-08-21T08:33:15.735Z,100990.69
2022-08-21T08:35:45.600Z,100994.00
2022-08-21T08:38:12.122Z,100989.31
2022-08-21T08:40:57.251Z,100992.53
2022-08-21T08:43:23.736Z,100992.53
2022-08-21T08:45:55.017Z,100999.00
2022-08-21T08:49:12.726Z,100994.66
2022-08-21T08:51:53.020Z,100992.16
2022-08-21T08:54:32.401Z,100982.19
2022-08-21T08:57:00.950Z,100987.78
2022-08-21T08:59:40.849Z,100979.53
2022-08-21T09:02:10.717Z,100974.34
2022-08-21T09:04:37.535Z,100976.69
2022-08-21T09:07:20.831Z,100970.16
2022-08-21T09:10:11.290Z,100978.25
2022-08-21T09:12:49.859Z,100980.97
2022-08-21T09:15:54.994Z,100979.97
2022-08-21T09:18:33.975Z,100980.56
2022-08-21T09:21:15.650Z,100985.72
2022-08-21T09:23:42.377Z,100984.56
2022-08-21T09:26:17.734Z,100984.56
2022-08-21T09:28:45.434Z,100981.63
2022-08-21T09:31:35.357Z,100980.78
2022-08-21T09:34:09.710Z,100981.63
2022-08-21T09:36:41.519Z,100985.25
2022-08-21T09:39:10.182Z,100977.00
2022-08-21T09:41:39.005Z,100980.84
2022-08-21T09:44:08.537Z,100979.78
2022-08-21T09:46:36.564Z,100970.50
2022-08-21T09:49:06.845Z,100981.09
2022-08-21T09:51:52.401Z,100965.09
2022-08-21T09:54:22.424Z,100979.91
2022-08-21T09:57:33.216Z,100977.06
2022-08-21T10:00:12.113Z,100975.25
2022-08-21T10:02:39.242Z,100978.97
2022-08-21T10:05:18.846Z,100978.34
2022-08-21T10:07:45.345Z,100981.56
2022-08-21T10:10:19.174Z,100986.22
2022-08-21T10:12:59.650Z,100985.66
2022-08-21T10:15:53.922Z,100984.31
2022-08-21T10:18:39.121Z,100976.09
2022-08-21T10:21:19.920Z,100978.78
2022-08-21T10:23:55.961Z,100979.06
2022-08-21T10:26:37.082Z,100985.25
2022-08-21T10:29:12.329Z,100980.41
2022-08-21T10:31:54.442Z,100982.00
2022-08-21T10:34:53.312Z,100984.94
2022-08-21T10:37:27.220Z,100988.03
2022-08-21T10:40:20.302Z,100984.41
2022-08-21T10:43:14.847Z,100983.97
2022-08-21T10:45:56.051Z,100975.81
2022-08-21T10:48:37.521Z,100981.41
2022-08-21T10:51:03.848Z,100976.78
2022-08-21T10:53:43.220Z,100983.88
2022-08-21T10:56:17.157Z,100974.31
2022-08-21T10:58:59.424Z,100981.63
2022-08-21T11:01:33.218Z,100972.66
2022-08-21T11:04:17.086Z,100981.03
2022-08-21T11:06:48.633Z,100969.91
2022-08-21T11:09:18.238Z,100976.50
2022-08-21T11:11:59.068Z,100981.03
2022-08-21T11:15:03.941Z,100981.34
2022-08-21T11:17:59.154Z,100970.44
2022-08-21T11:21:00.092Z,100972.44
2022-08-21T11:23:37.788Z,100962.78
2022-08-21T11:26:13.509Z,100968.94
2022-08-21T11:28:51.175Z,100967.50
2022-08-21T11:31:36.166Z,100971.28
2022-08-21T11:34:02.644Z,100965.09
2022-08-21T11:36:47.607Z,100966.25
2022-08-21T11:39:14.141Z,100966.63
2022-08-21T11:42:09.135Z,100967.16
2022-08-21T11:45:05.516Z,100964.00
2022-08-21T11:47:55.002Z,100964.66
2022-08-21T11:50:36.148Z,100968.81
2022-08-21T11:53:25.575Z,100957.63
2022-08-21T11:55:58.002Z,100974.22
2022-08-21T11:58:37.098Z,100966.22
2022-08-21T12:01:16.953Z,100966.28
2022-08-21T12:03:56.255Z,100958.13
2022-08-21T12:06:50.308Z,100956.91
2022-08-21T12:09:26.090Z,100955.31
2022-08-21T12:12:13.211Z,100959.22
2022-08-21T12:14:46.138Z,100948.63
2022-08-21T12:17:36.945Z,100945.28
2022-08-21T12:20:28.254Z,100951.34
2022-08-21T12:23:16.622Z,100938.63
2022-08-21T12:25:47.972Z,100941.16
2022-08-21T12:28:22.636Z,100941.63
2022-08-21T12:30:52.073Z,100943.38
2022-08-21T12:33:25.671Z,100950.97
2022-08-21T12:36:02.281Z,100944.47
2022-08-21T12:38:34.357Z,100943.63
2022-08-21T12:41:06.838Z,100949.69
2022-08-21T12:43:43.930Z,100942.09
2022-08-21T12:46:23.392Z,100940.50
2022-08-21T12:48:57.696Z,100945.63
2022-08-21T12:51:44.669Z,100941.72
2022-08-21T12:54:11.151Z,100937.09
2022-08-21T12:56:40.015Z,100928.28
2022-08-21T12:59:11.989Z,100932.91
2022-08-21T13:01:52.468Z,100932.66
2022-08-21T13:04:23.005Z,100918.41
2022-08-21T13:06:53.975Z,100935.66
2022-08-21T13:09:26.849Z,100929.47
2022-08-21T13:11:54.414Z,100927.16
2022-08-21T13:14:20.859Z,100929.06
2022-08-21T13:16:48.493Z,100925.28
2022-08-21T13:19:23.855Z,100926.31
2022-08-21T13:21:53.324Z,100929.59
2022-08-21T13:24:43.722Z,100928.00
2022-08-21T13:27:26.463Z,100924.19
2022-08-21T13:30:10.946Z,100934.41
2022-08-21T13:32:42.868Z,100926.38
2022-08-21T13:35:16.047Z,100923.56
2022-08-21T13:37:44.230Z,100925.91
2022-08-21T13:40:15.897Z,100935.66
2022-08-21T13:42:46.155Z,100932.03
2022-08-21T13:45:18.194Z,100933.59
2022-08-21T13:47:47.839Z,100932.91
2022-08-21T13:50:16.055Z,100919.00
2022-08-21T13:52:54.815Z,100924.81
2022-08-21T13:55:21.364Z,100925.44
2022-08-21T13:57:47.941Z,100934.19
2022-08-21T14:00:20.893Z,100929.72
2022-08-21T14:02:52.645Z,100922.19
2022-08-21T14:05:31.203Z,100921.00
2022-08-21T14:08:09.921Z,100928.75
2022-08-21T14:10:42.482Z,100917.25
2022-08-21T14:13:25.081Z,100919.63
2022-08-21T14:16:03.446Z,100918.09
2022-08-21T14:18:30.525Z,100917.56
2022-08-21T14:21:09.038Z,100914.97
2022-08-21T14:23:36.026Z,100920.81
2022-08-21T14:26:06.705Z,100921.72
2022-08-21T14:28:42.364Z,100917.91
2022-08-21T14:31:18.287Z,100913.19
2022-08-21T14:33:46.246Z,100909.72
2022-08-21T14:36:12.749Z,100913.72
2022-08-21T14:38:41.478Z,100916.25
2022-08-21T14:41:19.138Z,100913.06
2022-08-21T14:43:47.327Z,100919.84
2022-08-21T14:46:21.228Z,100912.81
2022-08-21T14:48:47.845Z,100911.97
2022-08-21T14:51:14.647Z,100913.56
2022-08-21T14:53:41.609Z,100908.06
2022-08-21T14:56:08.259Z,100912.09
2022-08-21T14:58:39.341Z,100913.53
2022-08-21T15:01:08.407Z,100918.97
2022-08-21T15:03:35.082Z,100918.03
2022-08-21T15:06:02.102Z,100911.38
2022-08-21T15:08:28.627Z,100910.25
2022-08-21T15:11:11.081Z,100916.41
2022-08-21T15:13:38.667Z,100919.38
2022-08-21T15:16:05.305Z,100921.63
2022-08-21T15:18:34.295Z,100920.53
2022-08-21T15:21:00.829Z,100919.19
2022-08-21T15:23:27.445Z,100908.25
2022-08-21T15:25:54.923Z,100909.03
2022-08-21T15:28:22.231Z,100911.03
2022-08-21T15:30:50.066Z,100903.59
2022-08-21T15:33:16.625Z,100905.50
2022-08-21T15:35:43.116Z,100907.91
2022-08-21T15:38:11.436Z,100903.41
2022-08-21T15:40:38.842Z,100904.88
2022-08-21T15:43:07.050Z,100909.78
2022-08-21T15:45:34.518Z,100908.78
2022-08-21T15:48:01.928Z,100908.41
2022-08-21T15:50:29.353Z,100909.50
2022-08-21T15:52:55.865Z,100908.41
2022-08-21T15:55:22.804Z,100905.34
2022-08-21T15:57:58.175Z,100906.53
2022-08-21T16:00:26.571Z,100906.25
2022-08-21T16:02:56.039Z,100911.09
2022-08-21T16:05:23.928Z,100903.97
2022-08-21T16:07:51.207Z,100900.88
2022-08-21T16:10:23.411Z,100897.50
2022-08-21T16:12:58.856Z,100896.03
2022-08-21T16:15:26.807Z,100901.75
2022-08-21T16:17:54.788Z,100904.72
2022-08-21T16:20:28.165Z,100904.38
2022-08-21T16:22:56.118Z,100901.66
2022-08-21T16:25:23.318Z,100897.31
2022-08-21T16:27:57.381Z,100900.22
2022-08-21T16:30:27.121Z,100904.31
2022-08-21T16:32:53.938Z,100907.31
2022-08-21T16:35:21.546Z,100903.00
2022-08-21T16:37:52.917Z,100910.69
2022-08-21T16:40:20.075Z,100909.22
2022-08-21T16:42:46.636Z,100908.66
2022-08-21T16:45:16.512Z,100903.81
2022-08-21T16:47:44.552Z,100907.69
2022-08-21T16:50:16.053Z,100911.38
2022-08-21T16:52:43.173Z,100901.78
2022-08-21T16:55:09.882Z,100903.13
2022-08-21T16:57:37.889Z,100900.63
2022-08-21T17:00:08.907Z,100897.81
2022-08-21T17:02:37.944Z,100905.47
2022-08-21T17:05:06.528Z,100897.38
2022-08-21T17:07:41.014Z,100905.41
2022-08-21T17:10:09.602Z,100904.03
2022-08-21T17:12:36.509Z,100903.59
2022-08-21T17:15:11.556Z,100909.81
2022-08-21T17:17:38.170Z,100902.50
2022-08-21T17:20:05.201Z,100898.50
2022-08-21T17:22:32.918Z,100894.88
2022-08-21T17:24:59.498Z,100895.69
2022-08-21T17:27:28.207Z,100901.97
2022-08-21T17:29:56.166Z,100907.38
2022-08-21T17:32:23.105Z,100907.81
2022-08-21T17:34:49.582Z,100904.88
2022-08-21T17:37:16.156Z,100908.06
2022-08-21T17:39:42.964Z,100912.69
2022-08-21T17:42:13.699Z,100900.94
2022-08-21T17:44:42.621Z,100901.75
2022-08-21T17:47:09.733Z,100901.78
2022-08-21T17:49:36.401Z,100900.88
2022-08-21T17:52:04.628Z,100904.06
2022-08-21T17:54:31.442Z,100909.22
2022-08-21T17:56:58.406Z,100912.00
2022-08-21T17:59:25.316Z,100911.47
2022-08-21T18:01:52.241Z,100910.09
2022-08-21T18:04:18.721Z,100910.03
2022-08-21T18:06:45.463Z,100918.22
2022-08-21T18:09:12.813Z,100921.56
2022-08-21T18:11:40.698Z,100913.53
2022-08-21T18:14:07.979Z,100919.34
2022-08-21T18:16:37.395Z,100923.59
2022-08-21T18:19:08.714Z,100929.53
2022-08-21T18:21:35.290Z,100925.81
2022-08-21T18:24:01.915Z,100923.16
2022-08-21T18:26:32.851Z,100925.53
2022-08-21T18:29:01.504Z,100932.88
2022-08-21T18:31:31.536Z,100933.78
2022-08-21T18:33:58.959Z,100933.97
2022-08-21T18:36:27.739Z,100930.28
2022-08-21T18:39:04.629Z,100931.81
2022-08-21T18:41:45.222Z,100934.56
2022-08-21T18:44:14.733Z,100931.22
2022-08-21T18:46:52.272Z,100926.19
2022-08-21T18:49:19.324Z,100937.94
2022-08-21T18:51:46.369Z,100930.28
2022-08-21T18:54:14.563Z,100923.84
2022-08-21T18:56:42.142Z,100932.44
2022-08-21T18:59:10.691Z,100941.91
2022-08-21T19:01:38.080Z,100934.69
2022-08-21T19:04:06.685Z,100932.16
2022-08-21T19:06:36.457Z,100934.28
2022-08-21T19:09:09.413Z,100938.53
2022-08-21T19:11:38.513Z,100935.19
2022-08-21T19:16:59.673Z,100933.97
2022-08-21T19:19:26.208Z,100942.44
2022-08-21T19:21:53.079Z,100936.75
2022-08-21T19:24:23.130Z,100944.53
2022-08-21T19:26:50.378Z,100949.22
2022-08-21T19:29:34.450Z,100947.94
2022-08-21T19:32:04.591Z,100938.50
2022-08-21T19:34:31.343Z,100939.97
2022-08-21T19:37:03.701Z,100934.84
2022-08-21T19:39:38.139Z,100934.00
2022-08-21T19:42:06.276Z,100939.06
2022-08-21T19:44:37.777Z,100937.63
2022-08-21T19:47:12.939Z,100945.41
2022-08-21T19:49:51.304Z,100944.34
2022-08-21T19:52:18.383Z,100941.41
2022-08-21T19:54:45.038Z,100945.25
2022-08-21T19:57:12.528Z,100946.91
2022-08-21T19:59:40.676Z,100940.63
2022-08-21T20:02:09.186Z,100948.38
2022-08-21T20:04:35.881Z,100940.81
2022-08-21T20:07:02.435Z,100947.34
2022-08-21T20:09:28.949Z,100941.06
2022-08-21T20:11:58.294Z,100946.28
2022-08-21T20:14:31.195Z,100948.41
2022-08-21T20:17:07.985Z,100952.44
2022-08-21T20:19:38.959Z,100953.28
2022-08-21T20:22:06.258Z,100954.78
2022-08-21T20:24:33.326Z,100940.34
2022-08-21T20:27:03.122Z,100949.16
2022-08-21T20:29:36.159Z,100949.59
2022-08-21T20:32:07.713Z,100945.41
2022-08-21T20:34:34.534Z,100954.28
2022-08-21T20:37:01.582Z,100948.84
2022-08-21T20:39:28.650Z,100951.38
2022-08-21T20:41:56.605Z,100955.13
2022-08-21T20:44:28.269Z,100953.63
2022-08-21T20:46:54.962Z,100958.22
2022-08-21T20:49:26.706Z,100958.03
2022-08-21T20:54:52.567Z,100959.31
2022-08-21T20:57:22.497Z,100954.72
2022-08-21T20:59:51.820Z,100963.09
2022-08-21T21:02:36.577Z,100955.00
2022-08-21T21:05:12.614Z,100958.50
2022-08-21T21:07:57.708Z,100963.53
2022-08-21T21:10:36.433Z,100964.97
2022-08-21T21:13:14.010Z,100966.69
2022-08-21T21:15:42.523Z,100965.63
2022-08-21T21:18:18.173Z,100963.53
2022-08-21T21:21:34.197Z,100974.41
2022-08-21T21:24:01.400Z,100960.59
2022-08-21T21:26:35.286Z,100966.47
2022-08-21T21:29:13.255Z,100962.91
2022-08-21T21:31:41.431Z,100966.03
2022-08-21T21:34:07.896Z,100962.91
2022-08-21T21:37:07.976Z,100969.41
2022-08-21T21:39:50.488Z,100965.66
2022-08-21T21:42:32.971Z,100964.41
2022-08-21T21:45:27.007Z,100976.97
2022-08-21T21:48:11.884Z,100978.69
2022-08-21T21:50:53.516Z,100981.81
2022-08-21T21:53:38.778Z,100984.53
2022-08-21T21:56:17.241Z,100984.97
2022-08-21T21:59:02.218Z,100977.84
2022-08-21T22:01:43.716Z,100981.41
2022-08-21T22:04:52.126Z,100984.97
2022-08-21T22:07:28.498Z,100981.41
2022-08-21T22:10:05.670Z,100986.00
2022-08-21T22:12:50.000Z,100987.03
2022-08-21T22:15:26.175Z,100990.63
2022-08-21T22:18:10.090Z,100985.16
2022-08-21T22:20:56.134Z,100986.41
2022-08-21T22:23:27.425Z,100987.22
2022-08-21T22:26:03.750Z,100992.06
2022-08-21T22:28:35.369Z,100982.03
2022-08-21T22:31:10.958Z,100994.16
2022-08-21T22:33:37.678Z,100987.25
2022-08-21T22:36:19.461Z,100986.63
2022-08-21T22:38:46.034Z,100992.47
2022-08-21T22:41:24.214Z,100991.84
2022-08-21T22:44:02.394Z,100997.69
2022-08-21T22:46:37.562Z,100993.28
2022-08-21T22:49:12.149Z,100988.69
2022-08-21T22:51:43.884Z,100995.78
2022-08-21T22:54:22.933Z,100997.25
2022-08-21T22:57:00.397Z,100992.25
2022-08-21T22:59:31.917Z,100988.28
2022-08-21T23:02:30.458Z,100987.00
2022-08-21T23:05:00.573Z,100989.94
2022-08-21T23:10:41.641Z,100986.78
2022-08-21T23:13:12.966Z,100989.91
2022-08-21T23:16:07.956Z,100991.97
2022-08-21T23:18:55.578Z,100996.78
2022-08-21T23:21:27.949Z,100989.03
2022-08-21T23:24:36.219Z,100989.88
2022-08-21T23:27:24.180Z,100993.84
2022-08-21T23:30:10.592Z,100990.91
2022-08-21T23:36:41.192Z,100988.63
2022-08-21T23:39:20.325Z,100991.97
2022-08-21T23:42:04.001Z,100985.69
2022-08-21T23:45:12.224Z,100983.94
2022-08-21T23:47:46.486Z,100981.91
2022-08-21T23:50:56.835Z,100990.66
2022-08-21T23:53:37.487Z,100987.13
2022-08-21T23:56:23.535Z,100982.72
2022-08-21T23:59:09.263Z,100985.03
